sensor_id;sensor_type;location;lat;lon;timestamp;pressure;altitude;pressure_sealevel;temperature;humidity
59289;BME280;45056;47.602;9.886;2023-06-04T00:01:54;92870.88;;;18.13;49.05
59289;BME280;45056;47.602;9.886;2023-06-04T00:04:22;92872.59;;;18.10;48.90
59289;BME280;45056;47.602;9.886;2023-06-04T00:06:50;92867.56;;;18.09;49.34
59289;BME280;45056;47.602;9.886;2023-06-04T00:09:18;92869.09;;;18.10;49.31
59289;BME280;45056;47.602;9.886;2023-06-04T00:11:46;92867.56;;;18.09;49.33
59289;BME280;45056;47.602;9.886;2023-06-04T00:14:14;92869.84;;;18.10;49.46
59289;BME280;45056;47.602;9.886;2023-06-04T00:16:42;92864.81;;;18.09;49.69
59289;BME280;45056;47.602;9.886;2023-06-04T00:19:12;92863.06;;;18.06;49.66
59289;BME280;45056;47.602;9.886;2023-06-04T00:21:40;92868.81;;;18.02;49.90
59289;BME280;45056;47.602;9.886;2023-06-04T00:24:08;92860.25;;;18.00;49.91
59289;BME280;45056;47.602;9.886;2023-06-04T00:26:38;92860.47;;;17.96;50.04
59289;BME280;45056;47.602;9.886;2023-06-04T00:29:06;92863.75;;;17.95;50.07
59289;BME280;45056;47.602;9.886;2023-06-04T00:31:34;92864.97;;;17.94;49.96
59289;BME280;45056;47.602;9.886;2023-06-04T00:34:03;92866.44;;;17.89;50.24
59289;BME280;45056;47.602;9.886;2023-06-04T00:36:33;92868.94;;;17.87;50.08
59289;BME280;45056;47.602;9.886;2023-06-04T00:39:00;92858.91;;;17.84;50.25
59289;BME280;45056;47.602;9.886;2023-06-04T00:41:29;92858.41;;;17.80;50.55
59289;BME280;45056;47.602;9.886;2023-06-04T00:43:56;92866.09;;;17.76;50.35
59289;BME280;45056;47.602;9.886;2023-06-04T00:46:28;92864.84;;;17.71;50.53
59289;BME280;45056;47.602;9.886;2023-06-04T00:48:57;92860.53;;;17.64;50.61
59289;BME280;45056;47.602;9.886;2023-06-04T00:51:26;92871.22;;;17.56;50.62
59289;BME280;45056;47.602;9.886;2023-06-04T00:54:02;92866.19;;;17.49;51.11
59289;BME280;45056;47.602;9.886;2023-06-04T00:56:35;92863.63;;;17.45;51.15
59289;BME280;45056;47.602;9.886;2023-06-04T00:59:04;92864.41;;;17.46;51.21
59289;BME280;45056;47.602;9.886;2023-06-04T01:01:42;92866.94;;;17.50;51.34
59289;BME280;45056;47.602;9.886;2023-06-04T01:04:21;92865.19;;;17.52;51.43
59289;BME280;45056;47.602;9.886;2023-06-04T01:06:57;92863.22;;;17.53;51.12
59289;BME280;45056;47.602;9.886;2023-06-04T01:09:32;92868.72;;;17.53;51.32
59289;BME280;45056;47.602;9.886;2023-06-04T01:12:03;92860.47;;;17.53;51.20
59289;BME280;45056;47.602;9.886;2023-06-04T01:14:32;92862.94;;;17.51;51.20
59289;BME280;45056;47.602;9.886;2023-06-04T01:17:05;92862.19;;;17.50;51.33
59289;BME280;45056;47.602;9.886;2023-06-04T01:20:07;92860.41;;;17.47;51.30
59289;BME280;45056;47.602;9.886;2023-06-04T01:22:56;92859.13;;;17.42;51.24
59289;BME280;45056;47.602;9.886;2023-06-04T01:25:40;92856.59;;;17.39;51.46
59289;BME280;45056;47.602;9.886;2023-06-04T01:28:12;92862.03;;;17.33;51.65
59289;BME280;45056;47.602;9.886;2023-06-04T01:30:44;92862.25;;;17.29;51.77
59289;BME280;45056;47.602;9.886;2023-06-04T01:33:15;92864.75;;;17.27;51.76
59289;BME280;45056;47.602;9.886;2023-06-04T01:35:45;92864.00;;;17.27;51.62
59289;BME280;45056;47.602;9.886;2023-06-04T01:38:14;92860.47;;;17.26;51.79
59289;BME280;45056;47.602;9.886;2023-06-04T01:40:43;92860.97;;;17.25;51.91
59289;BME280;45056;47.602;9.886;2023-06-04T01:43:13;92853.22;;;17.23;51.95
59289;BME280;45056;47.602;9.886;2023-06-04T01:45:41;92865.94;;;17.21;52.03
59289;BME280;45056;47.602;9.886;2023-06-04T01:48:09;92868.44;;;17.19;51.93
59289;BME280;45056;47.602;9.886;2023-06-04T01:50:37;92865.91;;;17.15;52.19
59289;BME280;45056;47.602;9.886;2023-06-04T01:53:05;92866.38;;;17.13;52.16
59289;BME280;45056;47.602;9.886;2023-06-04T01:55:34;92867.34;;;17.10;52.10
59289;BME280;45056;47.602;9.886;2023-06-04T01:58:03;92865.56;;;17.07;52.31
59289;BME280;45056;47.602;9.886;2023-06-04T02:00:31;92860.03;;;17.01;52.35
59289;BME280;45056;47.602;9.886;2023-06-04T02:02:59;92869.44;;;16.95;52.48
59289;BME280;45056;47.602;9.886;2023-06-04T02:05:27;92869.63;;;16.91;52.57
59289;BME280;45056;47.602;9.886;2023-06-04T02:07:55;92869.88;;;16.87;52.75
59289;BME280;45056;47.602;9.886;2023-06-04T02:10:23;92868.81;;;16.85;52.83
59289;BME280;45056;47.602;9.886;2023-06-04T02:12:56;92869.31;;;16.83;52.88
59289;BME280;45056;47.602;9.886;2023-06-04T02:15:27;92867.53;;;16.80;52.77
59289;BME280;45056;47.602;9.886;2023-06-04T02:18:10;92872.75;;;16.78;52.96
59289;BME280;45056;47.602;9.886;2023-06-04T02:20:43;92873.25;;;16.77;53.07
59289;BME280;45056;47.602;9.886;2023-06-04T02:23:12;92873.72;;;16.75;53.27
59289;BME280;45056;47.602;9.886;2023-06-04T02:25:41;92882.94;;;16.72;53.31
59289;BME280;45056;47.602;9.886;2023-06-04T02:28:12;92876.69;;;16.71;53.22
59289;BME280;45056;47.602;9.886;2023-06-04T02:30:41;92889.59;;;16.65;53.20
59289;BME280;45056;47.602;9.886;2023-06-04T02:33:12;92886.53;;;16.57;53.38
59289;BME280;45056;47.602;9.886;2023-06-04T02:35:40;92884.44;;;16.52;53.79
59289;BME280;45056;47.602;9.886;2023-06-04T02:38:08;92888.94;;;16.50;53.88
59289;BME280;45056;47.602;9.886;2023-06-04T02:40:37;92890.63;;;16.47;53.85
59289;BME280;45056;47.602;9.886;2023-06-04T02:43:06;92883.34;;;16.44;53.89
59289;BME280;45056;47.602;9.886;2023-06-04T02:45:34;92884.59;;;16.43;53.97
59289;BME280;45056;47.602;9.886;2023-06-04T02:48:03;92880.63;;;16.44;54.18
59289;BME280;45056;47.602;9.886;2023-06-04T02:50:31;92880.34;;;16.42;54.13
59289;BME280;45056;47.602;9.886;2023-06-04T02:53:00;92872.88;;;16.42;53.99
59289;BME280;45056;47.602;9.886;2023-06-04T02:55:28;92877.59;;;16.42;54.11
59289;BME280;45056;47.602;9.886;2023-06-04T02:57:56;92881.56;;;16.41;54.04
59289;BME280;45056;47.602;9.886;2023-06-04T03:00:24;92884.31;;;16.41;54.11
59289;BME280;45056;47.602;9.886;2023-06-04T03:02:52;92885.56;;;16.40;54.39
59289;BME280;45056;47.602;9.886;2023-06-04T03:05:29;92885.75;;;16.36;54.46
59289;BME280;45056;47.602;9.886;2023-06-04T03:08:00;92884.75;;;16.34;54.47
59289;BME280;45056;47.602;9.886;2023-06-04T03:10:29;92886.72;;;16.33;54.54
59289;BME280;45056;47.602;9.886;2023-06-04T03:12:57;92891.47;;;16.33;54.46
59289;BME280;45056;47.602;9.886;2023-06-04T03:15:25;92891.19;;;16.30;54.53
59289;BME280;45056;47.602;9.886;2023-06-04T03:17:53;92879.94;;;16.28;54.57
59289;BME280;45056;47.602;9.886;2023-06-04T03:20:21;92895.66;;;16.28;54.38
59289;BME280;45056;47.602;9.886;2023-06-04T03:22:52;92891.88;;;16.25;54.44
59289;BME280;45056;47.602;9.886;2023-06-04T03:25:20;92892.81;;;16.22;54.38
59289;BME280;45056;47.602;9.886;2023-06-04T03:27:48;92894.06;;;16.21;54.51
59289;BME280;45056;47.602;9.886;2023-06-04T03:30:16;92902.28;;;16.21;54.41
59289;BME280;45056;47.602;9.886;2023-06-04T03:32:44;92902.78;;;16.20;54.53
59289;BME280;45056;47.602;9.886;2023-06-04T03:35:12;92899.25;;;16.19;54.36
59289;BME280;45056;47.602;9.886;2023-06-04T03:37:40;92900.50;;;16.18;54.58
59289;BME280;45056;47.602;9.886;2023-06-04T03:40:10;92893.50;;;16.17;54.59
59289;BME280;45056;47.602;9.886;2023-06-04T03:42:40;92896.75;;;16.15;54.70
59289;BME280;45056;47.602;9.886;2023-06-04T03:45:09;92890.97;;;16.13;54.75
59289;BME280;45056;47.602;9.886;2023-06-04T03:47:38;92901.97;;;16.13;54.81
59289;BME280;45056;47.602;9.886;2023-06-04T03:50:07;92903.94;;;16.13;54.95
59289;BME280;45056;47.602;9.886;2023-06-04T03:52:36;92897.47;;;16.16;54.78
59289;BME280;45056;47.602;9.886;2023-06-04T03:55:04;92901.75;;;16.17;54.68
59289;BME280;45056;47.602;9.886;2023-06-04T03:57:34;92902.50;;;16.18;54.53
59289;BME280;45056;47.602;9.886;2023-06-04T04:00:02;92899.25;;;16.19;54.43
59289;BME280;45056;47.602;9.886;2023-06-04T04:02:32;92908.53;;;16.22;54.50
59289;BME280;45056;47.602;9.886;2023-06-04T04:05:00;92906.25;;;16.20;54.51
59289;BME280;45056;47.602;9.886;2023-06-04T04:07:28;92913.00;;;16.19;54.51
59289;BME280;45056;47.602;9.886;2023-06-04T04:09:56;92912.25;;;16.19;54.60
59289;BME280;45056;47.602;9.886;2023-06-04T04:12:24;92906.25;;;16.20;54.41
59289;BME280;45056;47.602;9.886;2023-06-04T04:14:53;92912.34;;;16.24;54.69
59289;BME280;45056;47.602;9.886;2023-06-04T04:17:21;92922.13;;;16.31;54.41
59289;BME280;45056;47.602;9.886;2023-06-04T04:19:50;92927.97;;;16.39;54.47
59289;BME280;45056;47.602;9.886;2023-06-04T04:22:18;92925.50;;;16.41;54.64
59289;BME280;45056;47.602;9.886;2023-06-04T04:24:47;92922.56;;;16.44;54.29
59289;BME280;45056;47.602;9.886;2023-06-04T04:27:15;92919.59;;;16.48;54.38
59289;BME280;45056;47.602;9.886;2023-06-04T04:29:43;92921.66;;;16.53;54.06
59289;BME280;45056;47.602;9.886;2023-06-04T04:32:16;92918.25;;;16.58;54.07
59289;BME280;45056;47.602;9.886;2023-06-04T04:34:51;92921.53;;;16.63;53.99
59289;BME280;45056;47.602;9.886;2023-06-04T04:37:21;92925.28;;;16.65;54.24
59289;BME280;45056;47.602;9.886;2023-06-04T04:39:49;92934.56;;;16.68;54.24
59289;BME280;45056;47.602;9.886;2023-06-04T04:42:19;92936.34;;;16.71;54.19
59289;BME280;45056;47.602;9.886;2023-06-04T04:44:47;92939.38;;;16.73;54.14
59289;BME280;45056;47.602;9.886;2023-06-04T04:47:18;92933.97;;;16.79;54.06
59289;BME280;45056;47.602;9.886;2023-06-04T04:49:46;92929.47;;;16.81;53.97
59289;BME280;45056;47.602;9.886;2023-06-04T04:52:15;92938.22;;;16.80;54.10
59289;BME280;45056;47.602;9.886;2023-06-04T04:54:43;92944.19;;;16.78;54.11
59289;BME280;45056;47.602;9.886;2023-06-04T04:57:11;92939.38;;;16.73;54.55
59289;BME280;45056;47.602;9.886;2023-06-04T04:59:40;92941.31;;;16.67;54.65
59289;BME280;45056;47.602;9.886;2023-06-04T05:02:08;92936.00;;;16.63;54.88
59289;BME280;45056;47.602;9.886;2023-06-04T05:04:37;92938.56;;;16.67;54.84
59289;BME280;45056;47.602;9.886;2023-06-04T05:07:05;92949.13;;;16.74;54.88
59289;BME280;45056;47.602;9.886;2023-06-04T05:09:33;92952.97;;;16.82;54.68
59289;BME280;45056;47.602;9.886;2023-06-04T05:12:01;92948.31;;;16.88;54.38
59289;BME280;45056;47.602;9.886;2023-06-04T05:14:29;92951.97;;;17.27;54.17
59289;BME280;45056;47.602;9.886;2023-06-04T05:16:58;92956.84;;;18.34;51.59
59289;BME280;45056;47.602;9.886;2023-06-04T05:19:26;92955.03;;;18.74;49.90
59289;BME280;45056;47.602;9.886;2023-06-04T05:21:55;92953.75;;;18.70;49.85
59289;BME280;45056;47.602;9.886;2023-06-04T05:24:23;92960.53;;;18.69;50.03
59289;BME280;45056;47.602;9.886;2023-06-04T05:26:51;92957.31;;;18.76;50.03
59289;BME280;45056;47.602;9.886;2023-06-04T05:29:19;92963.63;;;18.88;49.87
59289;BME280;45056;47.602;9.886;2023-06-04T05:31:49;92972.69;;;19.00;49.66
59289;BME280;45056;47.602;9.886;2023-06-04T05:34:26;92966.38;;;18.94;49.68
59289;BME280;45056;47.602;9.886;2023-06-04T05:36:57;92958.81;;;18.77;49.71
59289;BME280;45056;47.602;9.886;2023-06-04T05:39:25;92961.78;;;18.68;50.45
59289;BME280;45056;47.602;9.886;2023-06-04T05:41:53;92966.50;;;18.62;50.71
59289;BME280;45056;47.602;9.886;2023-06-04T05:44:21;92972.25;;;18.58;50.95
59289;BME280;45056;47.602;9.886;2023-06-04T05:46:49;92971.72;;;18.54;50.80
59289;BME280;45056;47.602;9.886;2023-06-04T05:49:17;92963.97;;;18.52;51.13
59289;BME280;45056;47.602;9.886;2023-06-04T05:51:46;92971.00;;;18.59;50.98
59289;BME280;45056;47.602;9.886;2023-06-04T05:54:16;92968.78;;;18.69;50.91
59289;BME280;45056;47.602;9.886;2023-06-04T05:56:44;92972.34;;;18.81;50.55
59289;BME280;45056;47.602;9.886;2023-06-04T05:59:12;92968.94;;;19.03;49.61
59289;BME280;45056;47.602;9.886;2023-06-04T06:01:40;92970.75;;;19.17;48.68
59289;BME280;45056;47.602;9.886;2023-06-04T06:04:08;92970.78;;;19.23;48.52
59289;BME280;45056;47.602;9.886;2023-06-04T06:06:37;92966.78;;;19.30;48.53
59289;BME280;45056;47.602;9.886;2023-06-04T06:09:05;92972.06;;;19.45;48.11
59289;BME280;45056;47.602;9.886;2023-06-04T06:11:36;92967.09;;;19.55;47.93
59289;BME280;45056;47.602;9.886;2023-06-04T06:14:04;92977.63;;;19.62;47.78
59289;BME280;45056;47.602;9.886;2023-06-04T06:16:32;92969.88;;;19.66;47.47
59289;BME280;45056;47.602;9.886;2023-06-04T06:19:01;92966.59;;;19.85;47.06
59289;BME280;45056;47.602;9.886;2023-06-04T06:21:29;92976.16;;;20.01;46.72
59289;BME280;45056;47.602;9.886;2023-06-04T06:23:57;92973.16;;;20.04;45.89
59289;BME280;45056;47.602;9.886;2023-06-04T06:26:25;92970.41;;;19.99;46.22
59289;BME280;45056;47.602;9.886;2023-06-04T06:28:54;92963.88;;;19.96;45.88
59289;BME280;45056;47.602;9.886;2023-06-04T06:31:23;92967.63;;;19.99;46.12
59289;BME280;45056;47.602;9.886;2023-06-04T06:33:52;92973.16;;;20.16;46.14
59289;BME280;45056;47.602;9.886;2023-06-04T06:36:20;92968.78;;;20.72;44.97
59289;BME280;45056;47.602;9.886;2023-06-04T06:38:48;92970.13;;;21.18;43.81
59289;BME280;45056;47.602;9.886;2023-06-04T06:41:17;92967.09;;;21.28;43.32
59289;BME280;45056;47.602;9.886;2023-06-04T06:43:45;92977.22;;;21.14;43.75
59289;BME280;45056;47.602;9.886;2023-06-04T06:46:14;92981.31;;;20.96;44.37
59289;BME280;45056;47.602;9.886;2023-06-04T06:48:43;92975.78;;;20.84;44.94
59289;BME280;45056;47.602;9.886;2023-06-04T06:51:11;92972.78;;;20.76;44.93
59289;BME280;45056;47.602;9.886;2023-06-04T06:53:40;92978.84;;;20.69;45.21
59289;BME280;45056;47.602;9.886;2023-06-04T06:56:08;92972.31;;;20.61;45.35
59289;BME280;45056;47.602;9.886;2023-06-04T06:58:36;92979.38;;;20.56;45.29
59289;BME280;45056;47.602;9.886;2023-06-04T07:01:04;92978.38;;;20.54;45.04
59289;BME280;45056;47.602;9.886;2023-06-04T07:03:33;92980.38;;;20.53;44.96
59289;BME280;45056;47.602;9.886;2023-06-04T07:06:02;92979.88;;;20.55;45.33
59289;BME280;45056;47.602;9.886;2023-06-04T07:08:30;92978.38;;;20.59;45.13
59289;BME280;45056;47.602;9.886;2023-06-04T07:10:59;92980.38;;;20.65;45.38
59289;BME280;45056;47.602;9.886;2023-06-04T07:13:29;92980.38;;;20.65;44.48
59289;BME280;45056;47.602;9.886;2023-06-04T07:15:58;92979.88;;;20.60;44.23
59289;BME280;45056;47.602;9.886;2023-06-04T07:18:26;92985.13;;;20.58;44.27
59289;BME280;45056;47.602;9.886;2023-06-04T07:20:56;92981.13;;;20.59;44.40
59289;BME280;45056;47.602;9.886;2023-06-04T07:23:25;92975.09;;;20.61;44.02
59289;BME280;45056;47.602;9.886;2023-06-04T07:25:54;92982.13;;;20.62;44.20
59289;BME280;45056;47.602;9.886;2023-06-04T07:28:22;92975.63;;;20.59;43.54
59289;BME280;45056;47.602;9.886;2023-06-04T07:30:50;92972.84;;;20.59;43.39
59289;BME280;45056;47.602;9.886;2023-06-04T07:33:18;92974.59;;;20.63;43.40
59289;BME280;45056;47.602;9.886;2023-06-04T07:35:46;92967.81;;;20.64;42.94
59289;BME280;45056;47.602;9.886;2023-06-04T07:38:16;92969.81;;;20.63;42.79
59289;BME280;45056;47.602;9.886;2023-06-04T07:40:45;92976.34;;;20.66;42.72
59289;BME280;45056;47.602;9.886;2023-06-04T07:43:14;92975.31;;;20.69;42.22
59289;BME280;45056;47.602;9.886;2023-06-04T07:45:42;92976.31;;;20.71;41.55
59289;BME280;45056;47.602;9.886;2023-06-04T07:48:10;92982.84;;;20.74;41.39
59289;BME280;45056;47.602;9.886;2023-06-04T07:50:38;92974.06;;;20.75;37.34
59289;BME280;45056;47.602;9.886;2023-06-04T07:53:06;92978.34;;;20.76;35.88
59289;BME280;45056;47.602;9.886;2023-06-04T07:55:36;92976.06;;;20.81;35.27
59289;BME280;45056;47.602;9.886;2023-06-04T07:58:04;92968.50;;;20.87;34.17
59289;BME280;45056;47.602;9.886;2023-06-04T08:00:32;92979.56;;;20.93;34.58
59289;BME280;45056;47.602;9.886;2023-06-04T08:03:01;92978.53;;;20.96;34.23
59289;BME280;45056;47.602;9.886;2023-06-04T08:05:29;92973.22;;;21.03;34.20
59289;BME280;45056;47.602;9.886;2023-06-04T08:07:58;92973.97;;;21.04;34.12
59289;BME280;45056;47.602;9.886;2023-06-04T08:10:26;92975.25;;;21.03;34.16
59289;BME280;45056;47.602;9.886;2023-06-04T08:12:55;92970.69;;;21.05;34.47
59289;BME280;45056;47.602;9.886;2023-06-04T08:15:23;92972.47;;;21.09;34.15
59289;BME280;45056;47.602;9.886;2023-06-04T08:17:51;92970.91;;;21.13;34.24
59289;BME280;45056;47.602;9.886;2023-06-04T08:20:19;92968.63;;;21.17;33.78
59289;BME280;45056;47.602;9.886;2023-06-04T08:22:47;92973.91;;;21.21;33.21
59289;BME280;45056;47.602;9.886;2023-06-04T08:25:16;92971.81;;;21.33;33.12
59289;BME280;45056;47.602;9.886;2023-06-04T08:27:44;92974.94;;;21.60;32.73
59289;BME280;45056;47.602;9.886;2023-06-04T08:30:13;92976.88;;;21.76;32.55
59289;BME280;45056;47.602;9.886;2023-06-04T08:32:41;92975.81;;;21.85;32.71
59289;BME280;45056;47.602;9.886;2023-06-04T08:35:09;92971.97;;;21.94;32.29
59289;BME280;45056;47.602;9.886;2023-06-04T08:37:37;92979.25;;;21.97;32.21
59289;BME280;45056;47.602;9.886;2023-06-04T08:40:06;92976.25;;;21.95;32.73
59289;BME280;45056;47.602;9.886;2023-06-04T08:42:42;92970.69;;;21.95;32.33
59289;BME280;45056;47.602;9.886;2023-06-04T08:45:14;92976.25;;;21.95;32.38
59289;BME280;45056;47.602;9.886;2023-06-04T08:47:48;92966.44;;;21.94;31.93
59289;BME280;45056;47.602;9.886;2023-06-04T08:50:20;92971.72;;;21.92;31.88
59289;BME280;45056;47.602;9.886;2023-06-04T08:52:52;92982.34;;;21.88;32.01
59289;BME280;45056;47.602;9.886;2023-06-04T08:55:22;92980.06;;;21.86;32.08
59289;BME280;45056;47.602;9.886;2023-06-04T08:57:51;92986.63;;;21.89;32.23
59289;BME280;45056;47.602;9.886;2023-06-04T09:00:21;92991.84;;;21.93;32.23
59289;BME280;45056;47.602;9.886;2023-06-04T09:02:50;92982.28;;;21.94;32.05
59289;BME280;45056;47.602;9.886;2023-06-04T09:05:20;92988.06;;;21.96;32.31
59289;BME280;45056;47.602;9.886;2023-06-04T09:07:52;92984.03;;;21.97;31.84
59289;BME280;45056;47.602;9.886;2023-06-04T09:10:24;92993.34;;;21.94;32.17
59289;BME280;45056;47.602;9.886;2023-06-04T09:12:54;92992.38;;;21.91;31.65
59289;BME280;45056;47.602;9.886;2023-06-04T09:15:30;92989.09;;;21.93;31.87
59289;BME280;45056;47.602;9.886;2023-06-04T09:17:58;92997.63;;;21.95;32.48
59289;BME280;45056;47.602;9.886;2023-06-04T09:20:27;92989.53;;;22.02;32.43
59289;BME280;45056;47.602;9.886;2023-06-04T09:22:55;92989.25;;;22.06;32.29
59289;BME280;45056;47.602;9.886;2023-06-04T09:25:24;92995.78;;;22.09;32.40
59289;BME280;45056;47.602;9.886;2023-06-04T09:27:54;92991.22;;;22.11;32.62
59289;BME280;45056;47.602;9.886;2023-06-04T09:30:34;92988.47;;;22.11;32.44
59289;BME280;45056;47.602;9.886;2023-06-04T09:33:06;92992.72;;;22.12;32.39
59289;BME280;45056;47.602;9.886;2023-06-04T09:35:35;92988.16;;;22.15;32.58
59289;BME280;45056;47.602;9.886;2023-06-04T09:38:05;92990.69;;;22.13;32.23
59289;BME280;45056;47.602;9.886;2023-06-04T09:40:37;92990.94;;;22.15;32.44
59289;BME280;45056;47.602;9.886;2023-06-04T09:43:05;92986.66;;;22.14;33.02
59289;BME280;45056;47.602;9.886;2023-06-04T09:45:36;92984.16;;;22.16;33.01
59289;BME280;45056;47.602;9.886;2023-06-04T09:48:04;92987.38;;;22.20;33.41
59289;BME280;45056;47.602;9.886;2023-06-04T09:50:34;92991.81;;;22.29;32.72
59289;BME280;45056;47.602;9.886;2023-06-04T09:53:13;92989.00;;;22.34;32.00
59289;BME280;45056;47.602;9.886;2023-06-04T09:55:42;92981.47;;;22.35;31.53
59289;BME280;45056;47.602;9.886;2023-06-04T09:58:11;92986.69;;;22.39;31.73
59289;BME280;45056;47.602;9.886;2023-06-04T10:00:41;92984.38;;;22.43;32.59
59289;BME280;45056;47.602;9.886;2023-06-04T10:03:15;92975.56;;;22.44;32.26
59289;BME280;45056;47.602;9.886;2023-06-04T10:05:51;92974.06;;;22.49;32.09
59289;BME280;45056;47.602;9.886;2023-06-04T10:08:22;92978.56;;;22.52;31.92
59289;BME280;45056;47.602;9.886;2023-06-04T10:10:56;92977.28;;;22.53;31.47
59289;BME280;45056;47.602;9.886;2023-06-04T10:13:27;92972.78;;;22.50;31.36
59289;BME280;45056;47.602;9.886;2023-06-04T10:16:01;92981.59;;;22.48;31.45
59289;BME280;45056;47.602;9.886;2023-06-04T10:18:29;92985.38;;;22.51;31.76
59289;BME280;45056;47.602;9.886;2023-06-04T10:20:59;92988.59;;;22.55;31.51
59289;BME280;45056;47.602;9.886;2023-06-04T10:23:28;92983.53;;;22.59;31.67
59289;BME280;45056;47.602;9.886;2023-06-04T10:25:57;92978.94;;;22.62;31.44
59289;BME280;45056;47.602;9.886;2023-06-04T10:28:26;92971.84;;;22.67;31.65
59289;BME280;45056;47.602;9.886;2023-06-04T10:30:54;92972.84;;;22.69;31.45
59289;BME280;45056;47.602;9.886;2023-06-04T10:33:24;92987.66;;;22.72;31.27
59289;BME280;45056;47.602;9.886;2023-06-04T10:35:54;92984.91;;;22.72;31.02
59289;BME280;45056;47.602;9.886;2023-06-04T10:38:24;92975.53;;;22.75;30.88
59289;BME280;45056;47.602;9.886;2023-06-04T10:40:52;92980.50;;;22.82;30.88
59289;BME280;45056;47.602;9.886;2023-06-04T10:43:20;92976.38;;;22.89;30.70
59289;BME280;45056;47.602;9.886;2023-06-04T10:45:48;92982.56;;;23.01;30.55
59289;BME280;45056;47.602;9.886;2023-06-04T10:48:16;92970.31;;;23.15;30.88
59289;BME280;45056;47.602;9.886;2023-06-04T10:50:51;92984.94;;;23.35;30.76
59289;BME280;45056;47.602;9.886;2023-06-04T10:53:20;92974.59;;;23.55;30.26
59289;BME280;45056;47.602;9.886;2023-06-04T10:55:50;92979.91;;;23.72;29.48
59289;BME280;45056;47.602;9.886;2023-06-04T10:58:18;92976.53;;;23.79;28.92
59289;BME280;45056;47.602;9.886;2023-06-04T11:00:47;92977.28;;;23.80;28.75
59289;BME280;45056;47.602;9.886;2023-06-04T11:03:16;92977.28;;;23.80;28.81
59289;BME280;45056;47.602;9.886;2023-06-04T11:05:46;92973.13;;;23.86;29.21
59289;BME280;45056;47.602;9.886;2023-06-04T11:08:26;92968.56;;;23.89;29.37
59289;BME280;45056;47.602;9.886;2023-06-04T11:10:56;92960.00;;;23.87;29.69
59289;BME280;45056;47.602;9.886;2023-06-04T11:13:25;92965.78;;;23.89;29.76
59289;BME280;45056;47.602;9.886;2023-06-04T11:15:53;92960.44;;;23.91;30.05
59289;BME280;45056;47.602;9.886;2023-06-04T11:18:22;92968.56;;;23.89;30.13
59289;BME280;45056;47.602;9.886;2023-06-04T11:21:00;92965.69;;;23.95;30.08
59289;BME280;45056;47.602;9.886;2023-06-04T11:23:30;92971.09;;;24.06;30.00
59289;BME280;45056;47.602;9.886;2023-06-04T11:26:00;92969.41;;;24.16;30.11
59289;BME280;45056;47.602;9.886;2023-06-04T11:28:28;92972.88;;;24.23;29.95
59289;BME280;45056;47.602;9.886;2023-06-04T11:30:57;92969.31;;;24.22;29.51
59289;BME280;45056;47.602;9.886;2023-06-04T11:33:25;92973.16;;;24.19;29.48
59289;BME280;45056;47.602;9.886;2023-06-04T11:35:53;92971.75;;;24.12;29.61
59289;BME280;45056;47.602;9.886;2023-06-04T11:38:21;92974.84;;;24.09;29.98
59289;BME280;45056;47.602;9.886;2023-06-04T11:40:58;92971.53;;;24.10;30.44
59289;BME280;45056;47.602;9.886;2023-06-04T11:43:27;92975.28;;;24.13;30.43
59289;BME280;45056;47.602;9.886;2023-06-04T11:45:56;92975.28;;;24.13;30.13
59289;BME280;45056;47.602;9.886;2023-06-04T11:48:25;92973.56;;;24.10;29.81
59289;BME280;45056;47.602;9.886;2023-06-04T11:50:54;92982.44;;;24.08;29.31
59289;BME280;45056;47.602;9.886;2023-06-04T11:53:22;92980.72;;;24.05;29.35
59289;BME280;45056;47.602;9.886;2023-06-04T11:55:50;92978.53;;;23.98;29.77
59289;BME280;45056;47.602;9.886;2023-06-04T11:58:20;92969.91;;;24.01;30.63
59289;BME280;45056;47.602;9.886;2023-06-04T12:00:48;92979.44;;;24.06;31.36
59289;BME280;45056;47.602;9.886;2023-06-04T12:03:16;92971.97;;;24.14;31.48
59289;BME280;45056;47.602;9.886;2023-06-04T12:05:44;92971.38;;;24.22;31.94
59289;BME280;45056;47.602;9.886;2023-06-04T12:08:12;92973.72;;;24.31;32.08
59289;BME280;45056;47.602;9.886;2023-06-04T12:10:42;92977.38;;;24.39;31.81
59289;BME280;45056;47.602;9.886;2023-06-04T12:13:11;92974.28;;;24.43;31.68
59289;BME280;45056;47.602;9.886;2023-06-04T12:15:40;92974.28;;;24.43;32.01
59289;BME280;45056;47.602;9.886;2023-06-04T12:18:08;92967.25;;;24.42;32.21
59289;BME280;45056;47.602;9.886;2023-06-04T12:20:38;92970.22;;;24.44;32.43
59289;BME280;45056;47.602;9.886;2023-06-04T12:23:08;92970.22;;;24.44;32.25
59289;BME280;45056;47.602;9.886;2023-06-04T12:25:36;92964.47;;;24.42;31.77
59289;BME280;45056;47.602;9.886;2023-06-04T12:28:05;92966.81;;;24.38;31.88
59289;BME280;45056;47.602;9.886;2023-06-04T12:30:36;92970.66;;;24.34;32.00
59289;BME280;45056;47.602;9.886;2023-06-04T12:33:06;92959.63;;;24.29;32.21
59289;BME280;45056;47.602;9.886;2023-06-04T12:35:35;92970.31;;;24.25;32.23
59289;BME280;45056;47.602;9.886;2023-06-04T12:38:04;92972.09;;;24.22;32.27
59289;BME280;45056;47.602;9.886;2023-06-04T12:40:35;92967.59;;;24.19;32.25
59289;BME280;45056;47.602;9.886;2023-06-04T12:43:05;92964.41;;;24.15;32.38
59289;BME280;45056;47.602;9.886;2023-06-04T12:45:33;92969.50;;;24.11;32.43
59289;BME280;45056;47.602;9.886;2023-06-04T12:48:01;92979.97;;;24.04;32.39
59289;BME280;45056;47.602;9.886;2023-06-04T12:50:30;92971.25;;;23.95;32.13
59289;BME280;45056;47.602;9.886;2023-06-04T12:52:58;92971.41;;;23.83;32.17
59289;BME280;45056;47.602;9.886;2023-06-04T12:55:26;92976.84;;;23.75;32.52
59289;BME280;45056;47.602;9.886;2023-06-04T12:57:54;92972.34;;;23.72;32.47
59289;BME280;45056;47.602;9.886;2023-06-04T13:00:22;92975.63;;;23.71;32.72
59289;BME280;45056;47.602;9.886;2023-06-04T13:02:50;92972.09;;;23.70;32.72
59289;BME280;45056;47.602;9.886;2023-06-04T13:05:18;92972.88;;;23.71;32.90
59289;BME280;45056;47.602;9.886;2023-06-04T13:07:47;92976.41;;;23.71;33.07
59289;BME280;45056;47.602;9.886;2023-06-04T13:10:15;92983.31;;;23.65;32.61
59289;BME280;45056;47.602;9.886;2023-06-04T13:12:43;92986.59;;;23.63;32.86